Tripoli, Lebanon
Current Conditions -  °F | °C
As of 7:00 PM on Thursday 29 Jan 2015 (Local Time) from OLBA Reporting Station
Scattered Clouds Scattered Clouds  
Wind Chill: 59°   Ceiling: Unl
Heat Index: 59°   Visibility: 5mi
Dew Point: 48°   Wind: 6mph
Humidity: 67%   Direction: 160°SSE
Pressure: 29.97"   Gusts: NA
Location:  34.45°N, 35.84°E
Report Text: OLBA 291600Z 16005KT 8000 FEW026 SCT080 15/09 Q1015
Loading
Personal Weather Stations






























Interactive Weather Map New forecast layout! Learn more

10-Day Weather Forecast

Advertisements
Track Severe Weather on mobile